SWR7MZ LSZH-EDDS
Flight info
| Callsign | SWR7MZ |
|---|---|
| Flight time | 0h 31m |
| Altitude | 19000 |
| Route | DEGES Z1 BODAN/N0366F180 Z1 ALAGO Z4 ARSUT T125 REUTL |
| Aircraft | E195/M-SDE3GILORVW/S |
Departure
| Time | 2026-02-18 10:41 |
|---|---|
| Airport | Zürich Airport (LSZH) |
Arrival
| Time | 2026-02-18 11:12 |
|---|---|
| Airport | Stuttgart Airport (EDDS) |
| Time | Latitude | Longitude | Altitude | Speed | Heading |
|---|---|---|---|---|---|
| 2026-02-18 10:19 | 47.45582 | 8.55754 | 1424 ft | 0 kts | 6° |
| 2026-02-18 10:33 | 47.45587 | 8.55754 | 1424 ft | 1 kts | 6° |
| 2026-02-18 10:33 | 47.45606 | 8.55757 | 1424 ft | 3 kts | 4° |
| 2026-02-18 10:34 | 47.45626 | 8.55757 | 1424 ft | 2 kts | 8° |
| 2026-02-18 10:34 | 47.45638 | 8.55784 | 1424 ft | 6 kts | 74° |
| 2026-02-18 10:34 | 47.45636 | 8.55899 | 1424 ft | 13 kts | 97° |
| 2026-02-18 10:34 | 47.45627 | 8.56022 | 1424 ft | 10 kts | 95° |
| 2026-02-18 10:35 | 47.45623 | 8.56106 | 1424 ft | 6 kts | 98° |
| 2026-02-18 10:35 | 47.45615 | 8.56193 | 1424 ft | 13 kts | 96° |
| 2026-02-18 10:35 | 47.45600 | 8.56375 | 1424 ft | 18 kts | 95° |
| 2026-02-18 10:35 | 47.45589 | 8.56549 | 1424 ft | 15 kts | 94° |
| 2026-02-18 10:36 | 47.45581 | 8.56686 | 1424 ft | 10 kts | 97° |
| 2026-02-18 10:36 | 47.45580 | 8.56705 | 1424 ft | 0 kts | 96° |
| 2026-02-18 10:37 | 47.45564 | 8.56903 | 1424 ft | 0 kts | 93° |
| 2026-02-18 10:38 | 47.45563 | 8.56937 | 1424 ft | 6 kts | 92° |
| 2026-02-18 10:38 | 47.45570 | 8.56996 | 1424 ft | 5 kts | 59° |
| 2026-02-18 10:38 | 47.45572 | 8.57000 | 1424 ft | 0 kts | 50° |
| 2026-02-18 10:39 | 47.45604 | 8.57018 | 1424 ft | 10 kts | 5° |
| 2026-02-18 10:39 | 47.45668 | 8.56957 | 1424 ft | 10 kts | 272° |
| 2026-02-18 10:39 | 47.45670 | 8.56919 | 1424 ft | 0 kts | 275° |
| 2026-02-18 10:40 | 47.45672 | 8.56881 | 1424 ft | 22 kts | 276° |
| 2026-02-18 10:40 | 47.45745 | 8.55862 | 1447 ft | 168 kts | 276° |
| 2026-02-18 10:41 | 47.45887 | 8.53825 | 1945 ft | 218 kts | 276° |
| 2026-02-18 10:41 | 47.45942 | 8.49266 | 2941 ft | 229 kts | 251° |
| 2026-02-18 10:41 | 47.45138 | 8.47263 | 3656 ft | 232 kts | 238° |
| 2026-02-18 10:42 | 47.44202 | 8.45311 | 4409 ft | 232 kts | 238° |
| 2026-02-18 10:42 | 47.43639 | 8.43131 | 4923 ft | 233 kts | 256° |
| 2026-02-18 10:42 | 47.43004 | 8.40935 | 4945 ft | 236 kts | 232° |
| 2026-02-18 10:42 | 47.41560 | 8.39825 | 5199 ft | 248 kts | 190° |
| 2026-02-18 10:43 | 47.39742 | 8.40293 | 5622 ft | 269 kts | 154° |
| 2026-02-18 10:43 | 47.38344 | 8.42294 | 6156 ft | 280 kts | 120° |
| 2026-02-18 10:43 | 47.37890 | 8.45145 | 6689 ft | 290 kts | 86° |
| 2026-02-18 10:43 | 47.38479 | 8.48278 | 7275 ft | 293 kts | 70° |
| 2026-02-18 10:44 | 47.39204 | 8.51265 | 7799 ft | 297 kts | 70° |
| 2026-02-18 10:44 | 47.39913 | 8.54173 | 8301 ft | 300 kts | 69° |
| 2026-02-18 10:44 | 47.40637 | 8.57121 | 8805 ft | 305 kts | 70° |
| 2026-02-18 10:44 | 47.41363 | 8.60117 | 9529 ft | 309 kts | 70° |
| 2026-02-18 10:45 | 47.42098 | 8.63137 | 10281 ft | 316 kts | 70° |
| 2026-02-18 10:45 | 47.43755 | 8.70003 | 11865 ft | 383 kts | 69° |
| 2026-02-18 10:45 | 47.44664 | 8.73749 | 12618 ft | 390 kts | 69° |
| 2026-02-18 10:46 | 47.45587 | 8.77575 | 13373 ft | 395 kts | 69° |
| 2026-02-18 10:46 | 47.46692 | 8.81393 | 14111 ft | 396 kts | 53° |
| 2026-02-18 10:46 | 47.48695 | 8.84245 | 14899 ft | 389 kts | 26° |
| 2026-02-18 10:46 | 47.51213 | 8.86070 | 15708 ft | 390 kts | 20° |
| 2026-02-18 10:47 | 47.53713 | 8.87835 | 16476 ft | 393 kts | 20° |
| 2026-02-18 10:47 | 47.56358 | 8.89703 | 17279 ft | 397 kts | 19° |
| 2026-02-18 10:47 | 47.58938 | 8.91527 | 18056 ft | 401 kts | 19° |
| 2026-02-18 10:47 | 47.61524 | 8.93356 | 18801 ft | 405 kts | 19° |
| 2026-02-18 10:48 | 47.64078 | 8.95163 | 18960 ft | 407 kts | 19° |
| 2026-02-18 10:48 | 47.66651 | 8.96988 | 18986 ft | 405 kts | 19° |
| 2026-02-18 10:48 | 47.69325 | 8.98885 | 18991 ft | 404 kts | 19° |
| 2026-02-18 10:48 | 47.72016 | 9.00797 | 18992 ft | 403 kts | 19° |
| 2026-02-18 10:49 | 47.74685 | 9.02696 | 18993 ft | 403 kts | 19° |
| 2026-02-18 10:49 | 47.79977 | 9.06467 | 18993 ft | 401 kts | 18° |
| 2026-02-18 10:49 | 47.82522 | 9.08283 | 18993 ft | 401 kts | 18° |
| 2026-02-18 10:50 | 47.85055 | 9.10093 | 18993 ft | 400 kts | 18° |
| 2026-02-18 10:50 | 47.87789 | 9.12050 | 18993 ft | 399 kts | 18° |
| 2026-02-18 10:50 | 47.90441 | 9.13948 | 18993 ft | 399 kts | 18° |
| 2026-02-18 10:50 | 47.92946 | 9.15744 | 18993 ft | 399 kts | 18° |
| 2026-02-18 10:51 | 47.95465 | 9.17551 | 18851 ft | 402 kts | 18° |
| 2026-02-18 10:51 | 47.97958 | 9.19345 | 18460 ft | 393 kts | 18° |
| 2026-02-18 10:51 | 48.00398 | 9.21102 | 18071 ft | 382 kts | 18° |
| 2026-02-18 10:51 | 48.02786 | 9.22820 | 17690 ft | 378 kts | 18° |
| 2026-02-18 10:52 | 48.05174 | 9.24538 | 17313 ft | 378 kts | 18° |
| 2026-02-18 10:52 | 48.07518 | 9.26229 | 16943 ft | 377 kts | 19° |
| 2026-02-18 10:52 | 48.09878 | 9.27934 | 16568 ft | 375 kts | 19° |
| 2026-02-18 10:52 | 48.12221 | 9.29629 | 16196 ft | 374 kts | 19° |
| 2026-02-18 10:53 | 48.14568 | 9.31327 | 15822 ft | 372 kts | 19° |
| 2026-02-18 10:53 | 48.19399 | 9.33228 | 15083 ft | 354 kts | 0° |
| 2026-02-18 10:53 | 48.21837 | 9.33662 | 14712 ft | 352 kts | 359° |
| 2026-02-18 10:54 | 48.24283 | 9.34072 | 14337 ft | 350 kts | 359° |
| 2026-02-18 10:54 | 48.26717 | 9.34470 | 13963 ft | 349 kts | 359° |
| 2026-02-18 10:54 | 48.29137 | 9.34864 | 13588 ft | 347 kts | 359° |
| 2026-02-18 10:54 | 48.31530 | 9.35253 | 13216 ft | 345 kts | 359° |
| 2026-02-18 10:55 | 48.33913 | 9.35640 | 13026 ft | 342 kts | 359° |
| 2026-02-18 10:55 | 48.36283 | 9.35754 | 12980 ft | 331 kts | 342° |
| 2026-02-18 10:55 | 48.38379 | 9.34551 | 13011 ft | 324 kts | 328° |
| 2026-02-18 10:55 | 48.40317 | 9.33077 | 12889 ft | 308 kts | 326° |
| 2026-02-18 10:56 | 48.42166 | 9.31563 | 12623 ft | 297 kts | 325° |
| 2026-02-18 10:56 | 48.43959 | 9.30052 | 12372 ft | 294 kts | 324° |
| 2026-02-18 10:56 | 48.45722 | 9.28548 | 12129 ft | 295 kts | 324° |
| 2026-02-18 10:56 | 48.47506 | 9.27022 | 11883 ft | 295 kts | 324° |
| 2026-02-18 10:57 | 48.49282 | 9.25496 | 11636 ft | 293 kts | 324° |
| 2026-02-18 10:57 | 48.52796 | 9.22474 | 11140 ft | 290 kts | 325° |
| 2026-02-18 10:57 | 48.54551 | 9.20965 | 11014 ft | 287 kts | 325° |
| 2026-02-18 10:58 | 48.56288 | 9.19469 | 10998 ft | 288 kts | 325° |
| 2026-02-18 10:58 | 48.57978 | 9.17869 | 10977 ft | 284 kts | 313° |
| 2026-02-18 10:58 | 48.58921 | 9.15342 | 11004 ft | 278 kts | 281° |
| 2026-02-18 10:58 | 48.58898 | 9.12451 | 11014 ft | 279 kts | 264° |
| 2026-02-18 10:59 | 48.58551 | 9.09550 | 10996 ft | 280 kts | 259° |
| 2026-02-18 10:59 | 48.58102 | 9.06714 | 10993 ft | 280 kts | 258° |
| 2026-02-18 10:59 | 48.57600 | 9.03868 | 10993 ft | 280 kts | 257° |
| 2026-02-18 10:59 | 48.57072 | 9.01018 | 10980 ft | 280 kts | 256° |
| 2026-02-18 11:00 | 48.56530 | 8.98157 | 10752 ft | 279 kts | 256° |
| 2026-02-18 11:00 | 48.55998 | 8.95383 | 10487 ft | 269 kts | 256° |
| 2026-02-18 11:00 | 48.55487 | 8.92728 | 10224 ft | 260 kts | 256° |
| 2026-02-18 11:00 | 48.54989 | 8.90148 | 9965 ft | 255 kts | 256° |
| 2026-02-18 11:01 | 48.54487 | 8.87546 | 9713 ft | 257 kts | 256° |
| 2026-02-18 11:01 | 48.53481 | 8.82354 | 9211 ft | 258 kts | 257° |
| 2026-02-18 11:01 | 48.52976 | 8.79752 | 8958 ft | 258 kts | 257° |
| 2026-02-18 11:02 | 48.52478 | 8.77194 | 8706 ft | 255 kts | 257° |
| 2026-02-18 11:02 | 48.51979 | 8.74635 | 8440 ft | 247 kts | 257° |
| 2026-02-18 11:02 | 48.51505 | 8.72201 | 8180 ft | 241 kts | 257° |
| 2026-02-18 11:02 | 48.51031 | 8.69780 | 7915 ft | 236 kts | 257° |
| 2026-02-18 11:03 | 48.50686 | 8.67364 | 7641 ft | 231 kts | 277° |
| 2026-02-18 11:03 | 48.51355 | 8.65181 | 7429 ft | 231 kts | 316° |
| 2026-02-18 11:03 | 48.52751 | 8.64008 | 7224 ft | 235 kts | 335° |
| 2026-02-18 11:03 | 48.54277 | 8.63122 | 7013 ft | 232 kts | 338° |
| 2026-02-18 11:04 | 48.55858 | 8.62610 | 6975 ft | 238 kts | 4° |
| 2026-02-18 11:04 | 48.57323 | 8.63693 | 6984 ft | 234 kts | 43° |
| 2026-02-18 11:04 | 48.58054 | 8.65876 | 7008 ft | 239 kts | 68° |
| 2026-02-18 11:04 | 48.58563 | 8.68261 | 6985 ft | 242 kts | 68° |
| 2026-02-18 11:05 | 48.59077 | 8.70673 | 6977 ft | 241 kts | 69° |
| 2026-02-18 11:05 | 48.60018 | 8.75529 | 6974 ft | 241 kts | 70° |
| 2026-02-18 11:05 | 48.60496 | 8.77990 | 6687 ft | 247 kts | 70° |
| 2026-02-18 11:06 | 48.60966 | 8.80422 | 6424 ft | 239 kts | 70° |
| 2026-02-18 11:06 | 48.61431 | 8.82825 | 6042 ft | 235 kts | 70° |
| 2026-02-18 11:06 | 48.61886 | 8.85162 | 5667 ft | 232 kts | 70° |
| 2026-02-18 11:06 | 48.62336 | 8.87485 | 5290 ft | 229 kts | 70° |
| 2026-02-18 11:07 | 48.62780 | 8.89782 | 4913 ft | 226 kts | 71° |
| 2026-02-18 11:07 | 48.63221 | 8.92061 | 4534 ft | 224 kts | 71° |
| 2026-02-18 11:07 | 48.63650 | 8.94279 | 4161 ft | 221 kts | 71° |
| 2026-02-18 11:07 | 48.64069 | 8.96457 | 3982 ft | 209 kts | 71° |
| 2026-02-18 11:08 | 48.64446 | 8.98434 | 4004 ft | 182 kts | 71° |
| 2026-02-18 11:08 | 48.64791 | 9.00227 | 3955 ft | 175 kts | 71° |
| 2026-02-18 11:08 | 48.65135 | 9.02005 | 3728 ft | 171 kts | 71° |
| 2026-02-18 11:08 | 48.65459 | 9.03694 | 3505 ft | 161 kts | 71° |
| 2026-02-18 11:09 | 48.65765 | 9.05292 | 3289 ft | 151 kts | 71° |
| 2026-02-18 11:09 | 48.66346 | 9.08320 | 2912 ft | 149 kts | 71° |
| 2026-02-18 11:09 | 48.66635 | 9.09831 | 2717 ft | 148 kts | 72° |
| 2026-02-18 11:10 | 48.66916 | 9.11307 | 2511 ft | 140 kts | 72° |
| 2026-02-18 11:10 | 48.67185 | 9.12724 | 2323 ft | 138 kts | 72° |
| 2026-02-18 11:10 | 48.67453 | 9.14119 | 2157 ft | 136 kts | 72° |
| 2026-02-18 11:10 | 48.67712 | 9.15479 | 1965 ft | 129 kts | 73° |
| 2026-02-18 11:11 | 48.67947 | 9.16723 | 1761 ft | 119 kts | 73° |
| 2026-02-18 11:11 | 48.68183 | 9.17956 | 1641 ft | 131 kts | 73° |
| 2026-02-18 11:11 | 48.68433 | 9.19267 | 1463 ft | 129 kts | 73° |
| 2026-02-18 11:11 | 48.68679 | 9.20573 | 1288 ft | 130 kts | 73° |
| 2026-02-18 11:12 | 48.68914 | 9.21823 | 1237 ft | 111 kts | 72° |
| 2026-02-18 11:12 | 48.69091 | 9.22741 | 1214 ft | 67 kts | 73° |
| 2026-02-18 11:12 | 48.69182 | 9.23226 | 1200 ft | 28 kts | 74° |
| 2026-02-18 11:12 | 48.69220 | 9.23394 | 1195 ft | 17 kts | 65° |
| 2026-02-18 11:13 | 48.69312 | 9.23591 | 1193 ft | 25 kts | 44° |
| 2026-02-18 11:13 | 48.69452 | 9.23702 | 1194 ft | 3 kts | 253° |
| 2026-02-18 11:13 | 48.69439 | 9.23650 | 1195 ft | 9 kts | 250° |
| 2026-02-18 11:14 | 48.69413 | 9.23519 | 1197 ft | 13 kts | 254° |
| 2026-02-18 11:14 | 48.69391 | 9.23399 | 1199 ft | 11 kts | 254° |
| 2026-02-18 11:14 | 48.69364 | 9.23259 | 1201 ft | 17 kts | 254° |
| 2026-02-18 11:14 | 48.69333 | 9.23098 | 1205 ft | 15 kts | 254° |
| 2026-02-18 11:15 | 48.69308 | 9.22965 | 1209 ft | 10 kts | 254° |
| 2026-02-18 11:15 | 48.69288 | 9.22854 | 1213 ft | 11 kts | 254° |
| 2026-02-18 11:15 | 48.69262 | 9.22717 | 1216 ft | 15 kts | 254° |
| 2026-02-18 11:15 | 48.69231 | 9.22551 | 1222 ft | 17 kts | 254° |
| 2026-02-18 11:16 | 48.69192 | 9.22351 | 1225 ft | 21 kts | 255° |
| 2026-02-18 11:16 | 48.69154 | 9.22147 | 1232 ft | 17 kts | 253° |
| 2026-02-18 11:16 | 48.69125 | 9.21998 | 1235 ft | 13 kts | 253° |
| 2026-02-18 11:16 | 48.69088 | 9.21805 | 1240 ft | 24 kts | 253° |
| 2026-02-18 11:17 | 48.69037 | 9.21535 | 1245 ft | 25 kts | 254° |
| 2026-02-18 11:17 | 48.68942 | 9.21036 | 1253 ft | 26 kts | 254° |
| 2026-02-18 11:17 | 48.68896 | 9.20789 | 1261 ft | 22 kts | 253° |
| 2026-02-18 11:18 | 48.68845 | 9.20524 | 1270 ft | 29 kts | 254° |
| 2026-02-18 11:18 | 48.68794 | 9.20253 | 1280 ft | 23 kts | 254° |
| 2026-02-18 11:18 | 48.68760 | 9.20053 | 1287 ft | 16 kts | 268° |
| 2026-02-18 11:18 | 48.68768 | 9.19917 | 1291 ft | 11 kts | 259° |
| 2026-02-18 11:19 | 48.68739 | 9.19760 | 1296 ft | 20 kts | 253° |
| 2026-02-18 11:19 | 48.68692 | 9.19509 | 1304 ft | 29 kts | 253° |
| 2026-02-18 11:19 | 48.68662 | 9.19253 | 1310 ft | 15 kts | 306° |
| 2026-02-18 11:19 | 48.68744 | 9.19235 | 1314 ft | 10 kts | 21° |
| 2026-02-18 11:20 | 48.68788 | 9.19299 | 1315 ft | 8 kts | 64° |
| 2026-02-18 11:20 | 48.68809 | 9.19400 | 1313 ft | 12 kts | 72° |
| 2026-02-18 11:20 | 48.68847 | 9.19454 | 1312 ft | 4 kts | 341° |
| 2026-02-18 11:20 | 48.68858 | 9.19448 | 1313 ft | 0 kts | 342° |
| 2026-02-18 11:21 | 48.68865 | 9.19445 | 1313 ft | 4 kts | 342° |
| 2026-02-18 11:21 | 48.68899 | 9.19430 | 1314 ft | 0 kts | 344° |